createdAt,value
2022-12-11T00:00:28.646Z,100.00
2022-12-11T00:01:30.224Z,100.00
2022-12-11T00:02:33.223Z,100.00
2022-12-11T00:03:34.973Z,100.00
2022-12-11T00:04:36.593Z,100.00
2022-12-11T00:05:39.724Z,100.00
2022-12-11T00:06:41.335Z,100.00
2022-12-11T00:07:45.841Z,100.00
2022-12-11T00:08:47.518Z,100.00
2022-12-11T00:09:49.128Z,100.00
2022-12-11T00:10:50.778Z,100.00
2022-12-11T00:11:52.495Z,100.00
2022-12-11T00:12:54.120Z,100.00
2022-12-11T00:13:55.666Z,100.00
2022-12-11T00:14:57.263Z,100.00
2022-12-11T00:15:59.387Z,100.00
2022-12-11T00:17:00.932Z,100.00
2022-12-11T00:18:03.920Z,100.00
2022-12-11T00:19:05.799Z,100.00
2022-12-11T00:20:08.444Z,100.00
2022-12-11T00:21:13.625Z,99.56
2022-12-11T00:22:15.227Z,100.00
2022-12-11T00:23:16.881Z,100.00
2022-12-11T00:24:18.464Z,100.00
2022-12-11T00:25:20.103Z,100.00
2022-12-11T00:26:21.762Z,100.00
2022-12-11T00:27:23.353Z,100.00
2022-12-11T00:28:24.981Z,100.00
2022-12-11T00:29:26.590Z,100.00
2022-12-11T00:30:28.167Z,100.00
2022-12-11T00:31:30.034Z,100.00
2022-12-11T00:32:36.159Z,100.00
2022-12-11T00:33:45.142Z,100.00
2022-12-11T00:34:46.726Z,100.00
2022-12-11T00:35:48.324Z,100.00
2022-12-11T00:36:49.866Z,100.00
2022-12-11T00:37:51.416Z,99.58
2022-12-11T00:38:54.076Z,100.00
2022-12-11T00:39:55.624Z,100.00
2022-12-11T00:40:58.529Z,100.00
2022-12-11T00:42:00.102Z,100.00
2022-12-11T00:43:01.869Z,100.00
2022-12-11T00:44:04.652Z,100.00
2022-12-11T00:45:07.414Z,100.00
2022-12-11T00:46:09.262Z,100.00
2022-12-11T00:47:10.907Z,100.00
2022-12-11T00:48:13.172Z,99.97
2022-12-11T00:49:17.034Z,100.00
2022-12-11T00:50:18.682Z,100.00
2022-12-11T00:51:20.255Z,100.00
2022-12-11T00:52:21.862Z,100.00
2022-12-11T00:53:23.521Z,100.00
2022-12-11T00:54:25.136Z,100.00
2022-12-11T00:55:26.750Z,100.00
2022-12-11T00:56:28.288Z,100.00
2022-12-11T00:57:29.895Z,100.00
2022-12-11T00:58:31.479Z,100.00
2022-12-11T00:59:33.055Z,100.00
2022-12-11T01:00:34.815Z,100.00
2022-12-11T01:01:36.556Z,100.00
2022-12-11T01:02:38.337Z,100.00
2022-12-11T01:03:40.009Z,100.00
2022-12-11T01:04:42.933Z,100.00
2022-12-11T01:05:51.492Z,100.00
2022-12-11T01:06:53.077Z,100.00
2022-12-11T01:07:54.916Z,100.00
2022-12-11T01:08:56.975Z,100.00
2022-12-11T01:09:58.569Z,100.00
2022-12-11T01:11:05.089Z,100.00
2022-12-11T01:12:06.935Z,98.85
2022-12-11T01:13:08.558Z,98.18
2022-12-11T01:14:19.211Z,98.50
2022-12-11T01:15:22.243Z,97.19
2022-12-11T01:16:23.845Z,97.22
2022-12-11T01:17:25.473Z,96.04
2022-12-11T01:18:27.823Z,94.63
2022-12-11T01:19:29.468Z,96.16
2022-12-11T01:20:32.943Z,95.86
2022-12-11T01:21:34.584Z,95.15
2022-12-11T01:22:36.171Z,96.08
2022-12-11T01:23:38.228Z,95.57
2022-12-11T01:24:39.793Z,96.67
2022-12-11T01:25:42.460Z,97.01
2022-12-11T01:26:44.127Z,96.60
2022-12-11T01:27:45.827Z,94.88
2022-12-11T01:28:49.896Z,96.27
2022-12-11T01:29:51.478Z,95.00
2022-12-11T01:30:53.094Z,95.30
2022-12-11T01:31:54.705Z,95.04
2022-12-11T01:32:56.307Z,92.96
2022-12-11T01:33:57.942Z,95.13
2022-12-11T01:34:59.548Z,95.83
2022-12-11T01:36:07.347Z,95.71
2022-12-11T01:37:08.974Z,95.27
2022-12-11T01:38:10.570Z,93.74
2022-12-11T01:39:12.120Z,94.44
2022-12-11T01:40:15.898Z,94.06
2022-12-11T01:41:18.189Z,94.06
2022-12-11T01:42:20.614Z,94.64
2022-12-11T01:43:22.193Z,94.25
2022-12-11T01:45:01.193Z,93.51
2022-12-11T01:46:02.957Z,93.41
2022-12-11T01:47:04.711Z,95.00
2022-12-11T01:48:10.898Z,93.56
2022-12-11T01:49:15.289Z,93.37
2022-12-11T01:50:17.479Z,93.94
2022-12-11T01:51:20.638Z,93.86
2022-12-11T01:52:22.653Z,94.29
2022-12-11T01:53:28.508Z,94.53
2022-12-11T01:54:30.591Z,94.13
2022-12-11T01:55:33.101Z,94.02
2022-12-11T01:56:36.315Z,94.61
2022-12-11T01:57:42.945Z,94.50
2022-12-11T01:58:48.842Z,94.94
2022-12-11T01:59:50.398Z,94.97
2022-12-11T02:00:53.132Z,94.82
2022-12-11T02:01:59.416Z,95.52
2022-12-11T02:03:00.908Z,95.84
2022-12-11T02:04:02.739Z,96.90
2022-12-11T02:05:06.340Z,96.67
2022-12-11T02:06:31.901Z,97.06
2022-12-11T02:07:38.816Z,96.83
2022-12-11T02:08:40.401Z,97.15
2022-12-11T02:09:44.990Z,97.45
2022-12-11T02:10:56.124Z,97.97
2022-12-11T02:12:19.867Z,97.55
2022-12-11T02:13:29.795Z,97.37
2022-12-11T02:14:43.692Z,97.92
2022-12-11T02:15:50.920Z,97.81
2022-12-11T02:16:59.676Z,97.73
2022-12-11T02:18:14.458Z,97.32
2022-12-11T02:19:30.757Z,97.51
2022-12-11T02:20:37.984Z,97.63
2022-12-11T02:21:46.143Z,96.79
2022-12-11T02:23:02.219Z,96.81
2022-12-11T02:24:32.123Z,97.16
2022-12-11T02:25:41.215Z,96.39
2022-12-11T02:27:00.288Z,96.50
2022-12-11T02:28:23.735Z,96.31
2022-12-11T02:29:32.305Z,95.83
2022-12-11T02:30:39.771Z,95.74
2022-12-11T02:31:46.767Z,95.09
2022-12-11T02:32:54.746Z,95.01
2022-12-11T02:34:01.856Z,95.32
2022-12-11T02:35:11.767Z,94.70
2022-12-11T02:36:16.136Z,95.02
2022-12-11T02:37:21.620Z,94.83
2022-12-11T02:38:28.599Z,95.33
2022-12-11T02:39:32.160Z,95.15
2022-12-11T02:40:37.344Z,96.61
2022-12-11T02:41:43.134Z,97.34
2022-12-11T02:42:48.108Z,97.63
2022-12-11T02:43:52.171Z,98.71
2022-12-11T02:44:55.589Z,99.12
2022-12-11T02:45:59.083Z,99.12
2022-12-11T02:47:02.828Z,99.41
2022-12-11T02:48:06.578Z,99.94
2022-12-11T02:49:10.144Z,100.00
2022-12-11T02:50:15.926Z,100.00
2022-12-11T02:51:22.012Z,100.00
2022-12-11T02:52:25.450Z,100.00
2022-12-11T02:53:32.337Z,100.00
2022-12-11T02:54:37.924Z,100.00
2022-12-11T02:55:41.822Z,100.00
2022-12-11T02:56:46.398Z,100.00
2022-12-11T02:57:51.485Z,100.00
2022-12-11T02:58:59.063Z,99.93
2022-12-11T03:00:00.681Z,100.00
2022-12-11T03:01:02.317Z,100.00
2022-12-11T03:02:04.647Z,100.00
2022-12-11T03:03:06.474Z,99.36
2022-12-11T03:04:08.244Z,98.14
2022-12-11T03:05:12.419Z,97.32
2022-12-11T03:06:17.827Z,96.21
2022-12-11T03:07:23.653Z,96.08
2022-12-11T03:08:25.276Z,95.92
2022-12-11T03:09:28.816Z,95.33
2022-12-11T03:10:30.385Z,95.81
2022-12-11T03:11:31.984Z,96.44
2022-12-11T03:12:36.864Z,96.60
2022-12-11T03:13:39.076Z,95.91
2022-12-11T03:14:42.797Z,95.46
2022-12-11T03:15:56.102Z,95.60
2022-12-11T03:17:13.678Z,95.21
2022-12-11T03:18:21.744Z,96.00
2022-12-11T03:19:31.902Z,95.70
2022-12-11T03:20:40.401Z,94.95
2022-12-11T03:21:46.714Z,95.70
2022-12-11T03:23:02.616Z,94.63
2022-12-11T03:24:10.066Z,94.79
2022-12-11T03:25:18.088Z,94.90
2022-12-11T03:26:20.961Z,95.36
2022-12-11T03:27:29.481Z,94.79
2022-12-11T03:28:39.401Z,94.50
2022-12-11T03:29:52.049Z,94.28
2022-12-11T03:30:54.519Z,94.85
2022-12-11T03:32:01.440Z,94.34
2022-12-11T03:33:06.334Z,94.22
2022-12-11T03:34:14.085Z,94.62
2022-12-11T03:35:20.171Z,94.34
2022-12-11T03:36:26.953Z,93.66
2022-12-11T03:37:33.393Z,93.53
2022-12-11T03:38:39.086Z,92.38
2022-12-11T03:39:46.219Z,92.53
2022-12-11T03:40:50.117Z,92.67
2022-12-11T03:41:53.334Z,92.84
2022-12-11T03:42:57.364Z,92.71
2022-12-11T03:43:59.236Z,90.26
2022-12-11T03:45:04.436Z,92.01
2022-12-11T03:46:09.430Z,92.29
2022-12-11T03:47:14.331Z,92.50
2022-12-11T03:48:17.730Z,92.56
2022-12-11T03:49:24.270Z,93.09
2022-12-11T03:50:30.588Z,93.04
2022-12-11T03:51:34.230Z,93.52
2022-12-11T03:52:42.419Z,93.69
2022-12-11T03:53:48.128Z,93.43
2022-12-11T03:54:50.889Z,93.76
2022-12-11T03:55:54.024Z,94.26
2022-12-11T03:56:57.952Z,94.48
2022-12-11T03:57:59.520Z,93.73
2022-12-11T03:59:01.054Z,94.16
2022-12-11T04:00:04.750Z,95.44
2022-12-11T04:01:08.758Z,95.24
2022-12-11T04:02:10.336Z,96.21
2022-12-11T04:03:13.835Z,95.58
2022-12-11T04:04:15.864Z,95.46
2022-12-11T04:05:17.579Z,95.99
2022-12-11T04:06:19.228Z,96.50
2022-12-11T04:07:20.799Z,97.10
2022-12-11T04:08:23.205Z,96.80
2022-12-11T04:09:24.797Z,95.62
2022-12-11T04:10:26.700Z,95.61
2022-12-11T04:11:28.236Z,95.69
2022-12-11T04:12:29.818Z,95.67
2022-12-11T04:13:31.355Z,96.23
2022-12-11T04:14:32.955Z,96.28
2022-12-11T04:15:37.001Z,95.99
2022-12-11T04:16:38.702Z,95.98
2022-12-11T04:17:40.236Z,96.47
2022-12-11T04:18:43.118Z,96.63
2022-12-11T04:19:44.631Z,96.25
2022-12-11T04:20:46.182Z,96.13
2022-12-11T04:21:47.741Z,95.99
2022-12-11T04:22:49.335Z,96.08
2022-12-11T04:23:51.045Z,96.02
2022-12-11T04:24:52.626Z,96.17
2022-12-11T04:25:54.157Z,96.12
2022-12-11T04:26:55.681Z,96.83
2022-12-11T04:27:57.221Z,96.67
2022-12-11T04:28:58.778Z,96.37
2022-12-11T04:30:00.324Z,96.31
2022-12-11T04:31:04.234Z,95.27
2022-12-11T04:32:05.974Z,95.98
2022-12-11T04:33:07.468Z,96.71
2022-12-11T04:34:09.249Z,96.61
2022-12-11T04:35:12.213Z,96.29
2022-12-11T04:36:14.781Z,94.90
2022-12-11T04:37:16.350Z,94.20
2022-12-11T04:38:17.955Z,93.47
2022-12-11T04:39:19.484Z,93.19
2022-12-11T04:40:21.509Z,93.33
2022-12-11T04:41:23.052Z,93.34
2022-12-11T04:42:24.621Z,92.47
2022-12-11T04:43:26.185Z,92.47
2022-12-11T04:44:27.735Z,92.74
2022-12-11T04:45:29.267Z,92.61
2022-12-11T04:46:32.236Z,92.90
2022-12-11T04:47:34.970Z,92.90
2022-12-11T04:48:37.721Z,92.27
2022-12-11T04:49:39.307Z,91.84
2022-12-11T04:50:40.831Z,92.16
2022-12-11T04:51:42.346Z,91.89
2022-12-11T04:52:45.498Z,92.39
2022-12-11T04:53:47.046Z,92.97
2022-12-11T04:54:48.724Z,92.89
2022-12-11T04:55:50.270Z,93.35
2022-12-11T04:56:51.833Z,93.81
2022-12-11T04:57:53.369Z,93.34
2022-12-11T04:58:54.897Z,92.80
2022-12-11T04:59:56.438Z,93.85
2022-12-11T05:00:58.000Z,93.75
2022-12-11T05:02:01.205Z,93.35
2022-12-11T05:03:08.283Z,92.73
2022-12-11T05:04:09.852Z,92.10
2022-12-11T05:05:11.785Z,92.19
2022-12-11T05:06:13.816Z,92.64
2022-12-11T05:07:15.337Z,92.82
2022-12-11T05:08:16.977Z,93.29
2022-12-11T05:09:23.548Z,92.42
2022-12-11T05:10:25.176Z,92.80
2022-12-11T05:11:26.675Z,92.68
2022-12-11T05:12:28.218Z,92.58
2022-12-11T05:13:30.344Z,91.80
2022-12-11T05:14:31.944Z,91.90
2022-12-11T05:15:33.509Z,91.80
2022-12-11T05:16:35.006Z,91.76
2022-12-11T05:17:37.868Z,92.98
2022-12-11T05:18:39.446Z,92.05
2022-12-11T05:19:41.084Z,92.07
2022-12-11T05:20:42.600Z,92.69
2022-12-11T05:21:44.139Z,93.63
2022-12-11T05:22:45.643Z,93.72
2022-12-11T05:23:47.228Z,93.14
2022-12-11T05:24:48.771Z,93.82
2022-12-11T05:25:53.529Z,93.21
2022-12-11T05:26:55.100Z,93.41
2022-12-11T05:27:56.637Z,94.45
2022-12-11T05:28:58.221Z,94.59
2022-12-11T05:29:59.864Z,94.17
2022-12-11T05:31:03.678Z,94.35
2022-12-11T05:32:05.464Z,94.53
2022-12-11T05:33:08.323Z,94.38
2022-12-11T05:34:09.850Z,94.13
2022-12-11T05:35:11.609Z,94.30
2022-12-11T05:36:16.468Z,93.85
2022-12-11T05:37:18.000Z,94.62
2022-12-11T05:38:20.078Z,94.52
2022-12-11T05:39:21.698Z,94.34
2022-12-11T05:40:23.212Z,93.69
2022-12-11T05:41:26.525Z,93.64
2022-12-11T05:42:30.880Z,94.72
2022-12-11T05:43:34.088Z,95.00
2022-12-11T05:44:35.686Z,96.03
2022-12-11T05:45:37.499Z,95.86
2022-12-11T05:46:39.606Z,96.30
2022-12-11T05:47:41.221Z,96.52
2022-12-11T05:48:45.931Z,97.05
2022-12-11T05:49:47.481Z,97.14
2022-12-11T05:50:57.596Z,96.86
2022-12-11T05:51:59.235Z,96.94
2022-12-11T05:53:00.728Z,97.35
2022-12-11T05:54:03.399Z,98.01
2022-12-11T05:55:05.648Z,97.61
2022-12-11T05:56:10.141Z,97.52
2022-12-11T05:57:11.675Z,97.06
2022-12-11T05:58:13.231Z,96.88
2022-12-11T05:59:14.743Z,95.79
2022-12-11T06:00:16.276Z,95.71
2022-12-11T06:01:19.500Z,95.67
2022-12-11T06:02:21.157Z,94.31
2022-12-11T06:03:22.813Z,94.30
2022-12-11T06:04:25.815Z,94.45
2022-12-11T06:05:27.309Z,94.47
2022-12-11T06:06:29.050Z,94.84
2022-12-11T06:07:30.600Z,95.17
2022-12-11T06:08:32.350Z,94.04
2022-12-11T06:09:33.846Z,95.40
2022-12-11T06:10:35.380Z,93.40
2022-12-11T06:11:36.911Z,94.09
2022-12-11T06:12:38.437Z,93.78
2022-12-11T06:13:40.353Z,96.68
2022-12-11T06:14:41.948Z,96.48
2022-12-11T06:15:43.450Z,95.45
2022-12-11T06:16:45.078Z,97.84
2022-12-11T06:17:46.720Z,97.04
2022-12-11T06:18:48.776Z,98.45
2022-12-11T06:19:51.626Z,100.00
2022-12-11T06:20:53.156Z,99.23
2022-12-11T06:21:54.736Z,100.00
2022-12-11T06:22:56.281Z,98.73
2022-12-11T06:24:00.148Z,98.11
2022-12-11T06:25:01.680Z,96.79
2022-12-11T06:26:03.713Z,94.21
2022-12-11T06:27:05.370Z,93.82
2022-12-11T06:28:06.983Z,93.58
2022-12-11T06:29:12.643Z,94.23
2022-12-11T06:30:14.632Z,94.69
2022-12-11T06:31:16.898Z,94.88
2022-12-11T06:32:18.529Z,94.73
2022-12-11T06:33:20.051Z,94.89
2022-12-11T06:34:21.587Z,94.46
2022-12-11T06:35:24.703Z,95.72
2022-12-11T06:36:26.261Z,95.86
2022-12-11T06:37:27.830Z,96.42
2022-12-11T06:38:29.355Z,96.68
2022-12-11T06:39:31.097Z,94.35
2022-12-11T06:40:32.666Z,94.46
2022-12-11T06:41:34.233Z,94.67
2022-12-11T06:42:35.979Z,95.11
2022-12-11T06:43:39.985Z,95.88
2022-12-11T06:44:41.703Z,95.74
2022-12-11T06:45:43.446Z,95.79
2022-12-11T06:46:45.079Z,96.23
2022-12-11T06:47:46.675Z,96.78
2022-12-11T06:48:50.721Z,95.29
2022-12-11T06:49:52.697Z,96.42
2022-12-11T06:50:55.580Z,96.59
2022-12-11T06:51:57.139Z,96.61
2022-12-11T06:52:58.720Z,96.53
2022-12-11T06:54:00.273Z,96.59
2022-12-11T06:55:01.835Z,95.86
2022-12-11T06:56:04.500Z,95.38
2022-12-11T06:57:06.088Z,97.09
2022-12-11T06:58:08.296Z,97.20
2022-12-11T06:59:11.385Z,96.14
2022-12-11T07:00:14.385Z,95.76
2022-12-11T07:01:18.377Z,96.89
2022-12-11T07:02:20.754Z,96.17
2022-12-11T07:03:22.463Z,95.53
2022-12-11T07:04:24.051Z,96.65
2022-12-11T07:05:25.686Z,95.83
2022-12-11T07:06:30.034Z,95.88
2022-12-11T07:07:40.394Z,95.63
2022-12-11T07:08:41.985Z,95.79
2022-12-11T07:09:43.515Z,96.51
2022-12-11T07:10:45.047Z,97.07
2022-12-11T07:11:49.120Z,96.52
2022-12-11T07:12:52.609Z,96.63
2022-12-11T07:13:54.129Z,97.00
2022-12-11T07:14:55.704Z,97.29
2022-12-11T07:15:58.341Z,99.53
2022-12-11T07:16:59.971Z,98.32
2022-12-11T07:18:01.523Z,98.08
2022-12-11T07:19:03.245Z,97.18
2022-12-11T07:20:05.744Z,97.05
2022-12-11T07:21:08.049Z,96.94
2022-12-11T07:22:10.933Z,97.76
2022-12-11T07:23:12.487Z,96.87
2022-12-11T07:24:14.059Z,98.50
2022-12-11T07:25:15.806Z,98.42
2022-12-11T07:26:19.355Z,97.49
2022-12-11T07:27:20.853Z,97.26
2022-12-11T07:28:22.550Z,97.83
2022-12-11T07:29:24.114Z,98.84
2022-12-11T07:30:25.620Z,97.88
2022-12-11T07:31:28.848Z,96.54
2022-12-11T07:32:30.538Z,96.93
2022-12-11T07:33:32.117Z,97.01
2022-12-11T07:34:33.664Z,96.32
2022-12-11T07:35:35.312Z,96.58
2022-12-11T07:36:36.834Z,95.94
2022-12-11T07:37:41.321Z,96.29
2022-12-11T07:38:42.835Z,95.66
2022-12-11T07:39:44.364Z,96.06
2022-12-11T07:40:45.902Z,96.02
2022-12-11T07:41:47.408Z,96.83
2022-12-11T07:42:48.994Z,98.49
2022-12-11T07:43:50.555Z,99.21
2022-12-11T07:44:52.071Z,99.08
2022-12-11T07:45:53.623Z,99.11
2022-12-11T07:46:55.180Z,99.76
2022-12-11T07:47:56.686Z,99.96
2022-12-11T07:48:58.289Z,100.00
2022-12-11T07:49:59.818Z,99.91
2022-12-11T07:51:08.529Z,100.00
2022-12-11T07:52:10.096Z,100.00
2022-12-11T07:53:12.975Z,100.00
2022-12-11T07:54:15.899Z,100.00
2022-12-11T07:55:17.467Z,100.00
2022-12-11T07:56:19.425Z,100.00
2022-12-11T07:57:21.000Z,100.00
2022-12-11T07:58:22.524Z,100.00
2022-12-11T07:59:24.022Z,100.00
2022-12-11T08:00:26.098Z,100.00
2022-12-11T08:01:30.044Z,100.00
2022-12-11T08:02:36.910Z,99.70
2022-12-11T08:03:39.071Z,98.95
2022-12-11T08:04:40.585Z,98.44
2022-12-11T08:05:47.899Z,99.44
2022-12-11T08:06:49.458Z,100.00
2022-12-11T08:07:51.041Z,98.57
2022-12-11T08:08:54.600Z,98.85
2022-12-11T08:09:56.121Z,98.67
2022-12-11T08:11:00.773Z,97.87
2022-12-11T08:12:02.310Z,96.82
2022-12-11T08:13:03.873Z,96.32
2022-12-11T08:14:05.874Z,97.03
2022-12-11T08:15:08.597Z,97.32
2022-12-11T08:16:12.364Z,97.14
2022-12-11T08:17:13.888Z,97.49
2022-12-11T08:18:15.438Z,96.54
2022-12-11T08:19:17.004Z,97.72
2022-12-11T08:20:18.578Z,97.55
2022-12-11T08:21:22.358Z,96.99
2022-12-11T08:22:23.904Z,100.00
2022-12-11T08:23:25.462Z,100.00
2022-12-11T08:24:28.331Z,100.00
2022-12-11T08:25:29.882Z,100.00
2022-12-11T08:26:31.584Z,100.00
2022-12-11T08:27:33.145Z,100.00
2022-12-11T08:28:35.136Z,100.00
2022-12-11T08:29:37.279Z,100.00
2022-12-11T08:30:39.253Z,100.00
2022-12-11T08:31:41.893Z,100.00
2022-12-11T08:32:43.461Z,100.00
2022-12-11T08:33:45.331Z,100.00
2022-12-11T08:34:46.816Z,98.30
2022-12-11T08:35:48.370Z,98.67
2022-12-11T08:36:49.931Z,100.00
2022-12-11T08:37:51.594Z,99.12
2022-12-11T08:38:54.986Z,98.91
2022-12-11T08:39:58.413Z,98.99
2022-12-11T08:41:08.555Z,98.18
2022-12-11T08:42:10.244Z,99.49
2022-12-11T08:43:11.786Z,100.00
2022-12-11T08:44:16.707Z,100.00
2022-12-11T08:45:18.589Z,100.00
2022-12-11T08:46:20.726Z,100.00
2022-12-11T08:47:22.279Z,100.00
2022-12-11T08:48:23.785Z,100.00
2022-12-11T08:49:27.592Z,100.00
2022-12-11T08:50:32.830Z,100.00
2022-12-11T08:51:34.372Z,100.00
2022-12-11T08:52:35.914Z,100.00
2022-12-11T08:53:37.529Z,100.00
2022-12-11T08:54:39.150Z,100.00
2022-12-11T08:55:42.023Z,100.00
2022-12-11T08:56:43.535Z,100.00
2022-12-11T08:57:45.110Z,100.00
2022-12-11T08:58:47.437Z,100.00
2022-12-11T08:59:49.069Z,100.00
2022-12-11T09:00:50.701Z,100.00
2022-12-11T09:01:52.389Z,100.00
2022-12-11T09:02:54.024Z,100.00
2022-12-11T09:03:56.623Z,100.00
2022-12-11T09:04:58.150Z,99.67
2022-12-11T09:05:59.786Z,100.00
2022-12-11T09:07:01.392Z,99.87
2022-12-11T09:08:03.020Z,100.00
2022-12-11T09:09:05.129Z,99.29
2022-12-11T09:10:08.517Z,98.98
2022-12-11T09:11:14.161Z,99.36
2022-12-11T09:12:15.683Z,99.06
2022-12-11T09:13:17.290Z,98.05
2022-12-11T09:14:18.871Z,98.01
2022-12-11T09:15:20.490Z,97.77
2022-12-11T09:16:24.188Z,98.00
2022-12-11T09:17:25.734Z,97.48
2022-12-11T09:20:30.257Z,96.31
2022-12-11T09:21:31.900Z,95.16
2022-12-11T09:22:33.564Z,95.19
2022-12-11T09:23:35.176Z,94.26
2022-12-11T09:24:36.765Z,94.25
2022-12-11T09:25:39.965Z,94.41
2022-12-11T09:26:42.907Z,93.23
2022-12-11T09:27:44.492Z,93.94
2022-12-11T09:28:47.273Z,93.78
2022-12-11T09:29:49.043Z,93.63
2022-12-11T09:30:51.149Z,93.39
2022-12-11T09:31:52.678Z,93.49
2022-12-11T09:32:54.192Z,92.97
2022-12-11T09:33:58.371Z,92.61
2022-12-11T09:34:59.869Z,93.04
2022-12-11T09:36:02.345Z,92.67
2022-12-11T09:37:03.858Z,90.86
2022-12-11T09:38:05.397Z,90.03
2022-12-11T09:39:08.715Z,90.38
2022-12-11T09:40:11.804Z,91.69
2022-12-11T09:41:29.464Z,91.32
2022-12-11T09:42:46.881Z,90.63
2022-12-11T09:43:58.102Z,90.19
2022-12-11T09:45:01.805Z,90.17
2022-12-11T09:46:06.975Z,90.93
2022-12-11T09:47:18.982Z,90.31
2022-12-11T09:48:24.014Z,89.40
2022-12-11T09:49:31.880Z,89.19
2022-12-11T09:50:34.799Z,90.83
2022-12-11T09:51:42.331Z,90.15
2022-12-11T09:52:54.487Z,89.73
2022-12-11T09:54:00.102Z,90.41
2022-12-11T09:55:10.088Z,89.98
2022-12-11T09:56:17.886Z,90.12
2022-12-11T09:57:43.543Z,90.03
2022-12-11T09:58:57.993Z,90.94
2022-12-11T10:00:16.136Z,90.89
2022-12-11T10:01:24.585Z,89.99
2022-12-11T10:02:41.004Z,90.22
2022-12-11T10:04:08.288Z,90.08
2022-12-11T10:05:17.656Z,89.42
2022-12-11T10:06:28.204Z,88.67
2022-12-11T10:07:36.030Z,87.79
2022-12-11T10:08:45.458Z,88.25
2022-12-11T10:09:51.566Z,87.32
2022-12-11T10:11:02.188Z,86.90
2022-12-11T10:12:18.790Z,86.20
2022-12-11T10:13:37.338Z,86.16
2022-12-11T10:14:52.031Z,84.80
2022-12-11T10:16:00.381Z,85.11
2022-12-11T10:17:09.874Z,84.27
2022-12-11T10:18:14.775Z,84.51
2022-12-11T10:19:20.310Z,83.89
2022-12-11T10:20:24.407Z,83.03
2022-12-11T10:21:26.590Z,83.36
2022-12-11T10:22:32.666Z,82.68
2022-12-11T10:23:38.489Z,83.43
2022-12-11T10:26:07.707Z,81.54
2022-12-11T10:27:16.378Z,79.11
2022-12-11T10:28:20.317Z,79.08
2022-12-11T10:29:23.638Z,78.88
2022-12-11T10:30:31.598Z,79.44
2022-12-11T10:31:42.614Z,81.03
2022-12-11T10:32:51.496Z,79.83
2022-12-11T10:33:59.222Z,80.68
2022-12-11T10:35:05.168Z,80.71
2022-12-11T10:36:08.558Z,79.18
2022-12-11T10:37:10.115Z,79.14
2022-12-11T10:38:15.510Z,78.78
2022-12-11T10:39:19.140Z,79.71
2022-12-11T10:40:21.981Z,80.24
2022-12-11T10:41:37.458Z,81.30
2022-12-11T10:42:44.053Z,81.91
2022-12-11T10:43:49.264Z,82.21
2022-12-11T10:45:00.912Z,82.45
2022-12-11T10:46:03.093Z,83.63
2022-12-11T10:47:07.098Z,86.62
2022-12-11T10:48:11.090Z,85.28
2022-12-11T10:49:24.598Z,86.28
2022-12-11T10:50:26.420Z,85.87
2022-12-11T10:51:34.843Z,87.69
2022-12-11T10:52:42.247Z,89.08
2022-12-11T10:53:49.110Z,88.24
2022-12-11T10:54:58.435Z,87.60
2022-12-11T10:56:01.637Z,88.67
2022-12-11T10:57:05.066Z,87.96
2022-12-11T10:58:06.826Z,90.58
2022-12-11T10:59:24.111Z,91.62
2022-12-11T11:00:32.104Z,89.64
2022-12-11T11:01:33.797Z,88.94
2022-12-11T11:02:37.485Z,89.30
2022-12-11T11:03:53.315Z,87.78
2022-12-11T11:04:57.137Z,88.20
2022-12-11T11:06:04.459Z,87.80
2022-12-11T11:07:13.458Z,88.07
2022-12-11T11:08:23.917Z,87.37
2022-12-11T11:09:30.005Z,87.00
2022-12-11T11:10:31.512Z,85.62
2022-12-11T11:11:36.940Z,87.52
2022-12-11T11:12:40.973Z,84.78
2022-12-11T11:13:42.474Z,86.13
2022-12-11T11:14:44.006Z,85.79
2022-12-11T11:15:47.198Z,86.33
2022-12-11T11:16:50.719Z,87.10
2022-12-11T11:17:55.999Z,84.92
2022-12-11T11:18:58.070Z,86.45
2022-12-11T11:20:04.560Z,85.80
2022-12-11T11:21:06.614Z,86.57
2022-12-11T11:22:14.818Z,87.25
2022-12-11T11:23:18.670Z,88.55
2022-12-11T11:24:28.563Z,88.01
2022-12-11T11:25:32.704Z,87.41
2022-12-11T11:27:11.042Z,86.54
2022-12-11T11:27:57.699Z,84.36
2022-12-11T11:28:59.298Z,83.74
2022-12-11T11:30:04.273Z,84.73
2022-12-11T11:31:10.710Z,86.42
2022-12-11T11:32:20.077Z,87.23
2022-12-11T11:33:23.677Z,86.79
2022-12-11T11:34:25.266Z,85.98
2022-12-11T11:35:28.259Z,86.36
2022-12-11T11:36:32.366Z,86.98
2022-12-11T11:37:34.440Z,88.14
2022-12-11T11:38:40.855Z,88.14
2022-12-11T11:39:43.847Z,87.30
2022-12-11T11:40:51.408Z,88.10
2022-12-11T11:42:01.714Z,86.30
2022-12-11T11:43:13.304Z,87.28
2022-12-11T11:44:19.874Z,88.56
2022-12-11T11:45:25.264Z,87.25
2022-12-11T11:46:32.916Z,85.32
2022-12-11T11:47:39.613Z,85.42
2022-12-11T11:48:50.892Z,88.79
2022-12-11T11:50:00.017Z,87.61
2022-12-11T11:51:12.636Z,85.40
2022-12-11T11:52:19.309Z,85.97
2022-12-11T11:53:27.022Z,85.59
2022-12-11T11:54:33.262Z,85.63
2022-12-11T11:55:46.553Z,84.22
2022-12-11T11:56:54.012Z,84.71
2022-12-11T11:58:00.982Z,84.25
2022-12-11T11:59:11.792Z,84.11
2022-12-11T12:00:20.114Z,83.02
2022-12-11T12:01:22.217Z,83.00
2022-12-11T12:02:25.339Z,83.66
2022-12-11T12:03:28.937Z,77.28
2022-12-11T12:04:34.082Z,78.47
2022-12-11T12:05:42.538Z,77.65
2022-12-11T12:12:58.017Z,82.47
2022-12-11T12:14:28.766Z,84.26
2022-12-11T12:15:38.594Z,85.72
2022-12-11T12:16:53.763Z,84.13
2022-12-11T12:18:04.039Z,83.42
2022-12-11T12:19:14.088Z,83.33
2022-12-11T12:20:24.425Z,84.02
2022-12-11T12:21:33.546Z,85.06
2022-12-11T12:22:50.387Z,83.72
2022-12-11T12:24:05.405Z,84.47
2022-12-11T12:25:16.447Z,84.92
2022-12-11T12:26:29.393Z,85.69
2022-12-11T12:27:55.269Z,86.47
2022-12-11T12:29:09.048Z,86.53
2022-12-11T12:30:20.396Z,86.42
2022-12-11T12:31:41.391Z,84.33
2022-12-11T12:33:03.477Z,84.90
2022-12-11T12:34:14.084Z,84.70
2022-12-11T12:35:33.737Z,85.54
2022-12-11T12:36:45.681Z,84.86
2022-12-11T12:37:56.955Z,84.90
2022-12-11T12:39:01.781Z,86.01
2022-12-11T12:40:13.955Z,84.30
2022-12-11T12:41:20.845Z,85.83
2022-12-11T12:42:35.004Z,85.72
2022-12-11T12:44:00.311Z,85.62
2022-12-11T12:45:10.712Z,82.74
2022-12-11T12:46:26.629Z,84.23
2022-12-11T12:47:32.323Z,82.98
2022-12-11T12:48:35.448Z,83.65
2022-12-11T12:49:40.799Z,84.28
2022-12-11T12:50:44.696Z,85.18
2022-12-11T12:51:47.267Z,83.17
2022-12-11T12:52:50.055Z,82.98
2022-12-11T12:53:55.904Z,83.08
2022-12-11T12:55:01.688Z,83.11
2022-12-11T12:56:04.641Z,83.43
2022-12-11T12:57:06.784Z,83.04
2022-12-11T12:58:25.593Z,83.29
2022-12-11T12:59:27.940Z,83.12
2022-12-11T13:00:32.900Z,83.76
2022-12-11T13:01:34.604Z,82.52
2022-12-11T13:02:38.076Z,82.52
2022-12-11T13:03:53.599Z,82.77
2022-12-11T13:04:58.981Z,81.96
2022-12-11T13:06:04.081Z,81.63
2022-12-11T13:07:15.738Z,81.34
2022-12-11T13:08:24.928Z,82.92
2022-12-11T13:09:28.370Z,81.86
2022-12-11T13:10:32.808Z,81.79
2022-12-11T13:11:35.893Z,82.78
2022-12-11T13:12:43.212Z,85.22
2022-12-11T13:13:53.214Z,85.20
2022-12-11T13:14:57.005Z,85.48
2022-12-11T13:16:23.572Z,86.96
2022-12-11T13:17:35.658Z,86.60
2022-12-11T13:18:38.506Z,86.56
2022-12-11T13:19:42.923Z,87.47
2022-12-11T13:20:48.125Z,87.64
2022-12-11T13:21:56.081Z,88.35
2022-12-11T13:23:17.372Z,88.35
2022-12-11T13:24:27.023Z,87.89
2022-12-11T13:25:30.570Z,88.03
2022-12-11T13:26:33.280Z,87.91
2022-12-11T13:27:39.929Z,87.60
2022-12-11T13:28:48.654Z,87.63
2022-12-11T13:29:50.199Z,87.09
2022-12-11T13:31:31.358Z,86.70
2022-12-11T13:32:33.600Z,86.53
2022-12-11T13:33:43.036Z,86.93
2022-12-11T13:34:53.532Z,87.09
2022-12-11T13:36:22.794Z,87.04
2022-12-11T13:37:30.622Z,88.24
2022-12-11T13:38:32.583Z,87.02
2022-12-11T13:39:37.489Z,86.94
2022-12-11T13:40:42.928Z,87.39
2022-12-11T13:41:47.500Z,87.00
2022-12-11T13:43:02.806Z,87.10
2022-12-11T13:44:05.923Z,86.12
2022-12-11T13:45:17.902Z,85.71
2022-12-11T13:46:23.965Z,86.30
2022-12-11T13:47:26.214Z,86.06
2022-12-11T13:48:31.945Z,85.57
2022-12-11T13:49:42.345Z,86.04
2022-12-11T13:50:45.823Z,85.83
2022-12-11T13:51:54.015Z,86.37
2022-12-11T13:52:56.399Z,87.09
2022-12-11T13:54:16.974Z,87.51
2022-12-11T13:55:24.508Z,86.49
2022-12-11T13:56:26.027Z,85.51
2022-12-11T13:57:27.897Z,85.94
2022-12-11T13:58:30.451Z,87.50